createdAt,value
2022-10-12T00:00:50.524Z,95686.38
2022-10-12T00:03:18.542Z,95687.09
2022-10-12T00:05:48.282Z,95692.66
2022-10-12T00:08:16.345Z,95686.38
2022-10-12T00:10:45.277Z,95694.50
2022-10-12T00:13:13.215Z,95688.75
2022-10-12T00:15:42.344Z,95692.75
2022-10-12T00:18:10.307Z,95692.25
2022-10-12T00:20:38.493Z,95690.19
2022-10-12T00:23:08.587Z,95688.59
2022-10-12T00:25:38.593Z,95692.75
2022-10-12T00:28:07.670Z,95690.66
2022-10-12T00:30:36.278Z,95689.06
2022-10-12T00:33:04.266Z,95687.97
2022-10-12T00:35:32.227Z,95693.72
2022-10-12T00:38:00.183Z,95694.75
2022-10-12T00:40:29.604Z,95690.91
2022-10-12T00:42:57.581Z,95690.91
2022-10-12T00:45:27.260Z,95689.41
2022-10-12T00:47:58.110Z,95688.69
2022-10-12T00:50:29.066Z,95688.56
2022-10-12T00:53:00.356Z,95683.63
2022-10-12T00:55:33.862Z,95689.19
2022-10-12T00:58:02.682Z,95685.22
2022-10-12T01:00:30.690Z,95688.56
2022-10-12T01:02:59.538Z,95692.03
2022-10-12T01:05:28.268Z,95682.94
2022-10-12T01:07:56.341Z,95682.47
2022-10-12T01:10:24.276Z,95679.13
2022-10-12T01:12:53.903Z,95675.31
2022-10-12T01:15:24.740Z,95680.59
2022-10-12T01:18:00.430Z,95673.81
2022-10-12T01:20:58.737Z,95673.81
2022-10-12T01:23:59.234Z,95682.63
2022-10-12T01:27:06.193Z,95673.06
2022-10-12T01:30:06.205Z,95672.25
2022-10-12T01:32:44.054Z,95669.88
2022-10-12T01:35:19.706Z,95676.56
2022-10-12T01:37:55.594Z,95674.19
2022-10-12T01:40:30.454Z,95676.88
2022-10-12T01:42:59.145Z,95668.28
2022-10-12T01:45:27.224Z,95662.53
2022-10-12T01:47:56.634Z,95667.31
2022-10-12T01:50:32.813Z,95672.09
2022-10-12T01:53:10.603Z,95671.00
2022-10-12T01:55:45.170Z,95672.44
2022-10-12T01:58:34.219Z,95675.91
2022-10-12T02:01:14.498Z,95665.84
2022-10-12T02:03:52.005Z,95672.16
2022-10-12T02:06:24.233Z,95674.78
2022-10-12T02:09:01.258Z,95665.84
2022-10-12T02:11:29.861Z,95670.00
2022-10-12T02:14:03.880Z,95666.81
2022-10-12T02:16:36.608Z,95668.41
2022-10-12T02:19:10.616Z,95664.72
2022-10-12T02:21:41.220Z,95665.22
2022-10-12T02:24:11.451Z,95661.22
2022-10-12T02:26:43.297Z,95663.06
2022-10-12T02:29:14.778Z,95660.44
2022-10-12T02:31:49.544Z,95660.88
2022-10-12T02:34:22.657Z,95654.03
2022-10-12T02:36:55.974Z,95642.72
2022-10-12T02:39:30.520Z,95652.41
2022-10-12T02:42:02.186Z,95656.66
2022-10-12T02:44:34.551Z,95652.41
2022-10-12T02:47:04.650Z,95647.16
2022-10-12T02:49:36.456Z,95645.09
2022-10-12T02:52:06.485Z,95645.09
2022-10-12T02:54:34.550Z,95646.72
2022-10-12T02:57:02.627Z,95646.72
2022-10-12T02:59:30.629Z,95650.34
2022-10-12T03:01:58.577Z,95639.03
2022-10-12T03:04:26.523Z,95642.47
2022-10-12T03:06:55.892Z,95645.91
2022-10-12T03:09:24.205Z,95641.09
2022-10-12T03:11:52.198Z,95643.97
2022-10-12T03:14:21.208Z,95649.22
2022-10-12T03:16:49.240Z,95650.84
2022-10-12T03:19:17.236Z,95642.38
2022-10-12T03:21:45.166Z,95646.03
2022-10-12T03:24:14.572Z,95637.13
2022-10-12T03:26:42.538Z,95642.38
2022-10-12T03:29:10.530Z,95636.31
2022-10-12T03:31:38.500Z,95633.47
2022-10-12T03:34:06.507Z,95643.19
2022-10-12T03:36:34.587Z,95647.63
2022-10-12T03:39:02.527Z,95648.44
2022-10-12T03:41:31.902Z,95645.56
2022-10-12T03:43:59.899Z,95647.28
2022-10-12T03:46:27.916Z,95647.38
2022-10-12T03:48:55.905Z,95647.84
2022-10-12T03:51:23.838Z,95648.75
2022-10-12T03:53:51.846Z,95652.91
2022-10-12T03:56:19.812Z,95646.03
2022-10-12T03:58:49.172Z,95649.22
2022-10-12T04:01:17.218Z,95647.78
2022-10-12T04:03:45.284Z,95654.41
2022-10-12T04:06:13.259Z,95652.72
2022-10-12T04:08:41.253Z,95649.53
2022-10-12T04:11:09.354Z,95645.88
2022-10-12T04:13:37.442Z,95652.72
2022-10-12T04:16:08.255Z,95661.16
2022-10-12T04:18:36.340Z,95654.31
2022-10-12T04:21:07.868Z,95647.00
2022-10-12T04:23:35.845Z,95652.72
2022-10-12T04:26:03.977Z,95654.78
2022-10-12T04:28:32.106Z,95652.50
2022-10-12T04:31:00.137Z,95648.19
2022-10-12T04:33:29.616Z,95648.19
2022-10-12T04:35:57.647Z,95650.91
2022-10-12T04:38:25.670Z,95648.84
2022-10-12T04:40:53.724Z,95650.34
2022-10-12T04:43:21.746Z,95648.66
2022-10-12T04:45:55.872Z,95650.75
2022-10-12T04:48:24.033Z,95645.47
2022-10-12T04:50:54.020Z,95655.53
2022-10-12T04:53:22.259Z,95640.41
2022-10-12T04:55:50.197Z,95640.31
2022-10-12T04:58:18.374Z,95641.81
2022-10-12T05:00:47.462Z,95633.38
2022-10-12T05:03:15.806Z,95633.38
2022-10-12T05:05:45.838Z,95637.03
2022-10-12T05:08:15.197Z,95637.03
2022-10-12T05:10:43.329Z,95633.84
2022-10-12T05:13:11.430Z,95633.84
2022-10-12T05:15:39.525Z,95632.22
2022-10-12T05:18:07.655Z,95627.81
2022-10-12T05:20:35.679Z,95633.06
2022-10-12T05:23:03.768Z,95632.22
2022-10-12T05:25:35.281Z,95629.84
2022-10-12T05:28:03.396Z,95636.34
2022-10-12T05:30:31.725Z,95639.22
2022-10-12T05:32:59.962Z,95642.06
2022-10-12T05:35:27.962Z,95628.38
2022-10-12T05:37:56.017Z,95638.88
2022-10-12T05:40:24.037Z,95643.34
2022-10-12T05:42:53.404Z,95649.41
2022-10-12T05:45:21.539Z,95646.22
2022-10-12T05:47:49.691Z,95644.63
2022-10-12T05:50:17.727Z,95653.53
2022-10-12T05:52:46.415Z,95646.22
2022-10-12T05:55:14.859Z,95655.56
2022-10-12T05:57:42.828Z,95650.31
2022-10-12T06:00:13.455Z,95647.91
2022-10-12T06:02:41.402Z,95644.25
2022-10-12T06:05:09.917Z,95648.28
2022-10-12T06:07:37.914Z,95653.06
2022-10-12T06:10:07.522Z,95652.81
2022-10-12T06:12:35.978Z,95656.25
2022-10-12T06:15:04.395Z,95663.09
2022-10-12T06:17:33.764Z,95661.03
2022-10-12T06:20:01.868Z,95661.34
2022-10-12T06:22:29.932Z,95660.44
2022-10-12T06:24:58.045Z,95657.91
2022-10-12T06:27:25.989Z,95655.38
2022-10-12T06:29:53.965Z,95655.25
2022-10-12T06:32:22.024Z,95662.75
2022-10-12T06:34:51.407Z,95667.06
2022-10-12T06:37:44.292Z,95671.84
2022-10-12T06:40:08.601Z,95668.88
2022-10-12T06:42:36.899Z,95669.50
2022-10-12T06:45:08.029Z,95672.22
2022-10-12T06:47:36.081Z,95673.38
2022-10-12T06:50:06.615Z,95672.44
2022-10-12T06:52:34.611Z,95670.34
2022-10-12T06:55:02.783Z,95676.72
2022-10-12T06:57:30.968Z,95678.31
2022-10-12T06:59:58.903Z,95681.03
2022-10-12T07:02:27.100Z,95685.84
2022-10-12T07:04:55.197Z,95682.81
2022-10-12T07:07:24.652Z,95688.72
2022-10-12T07:09:53.481Z,95689.84
2022-10-12T07:12:21.482Z,95693.72
2022-10-12T07:14:49.455Z,95696.03
2022-10-12T07:17:17.817Z,95687.66
2022-10-12T07:19:45.813Z,95696.41
2022-10-12T07:22:13.785Z,95690.19
2022-10-12T07:24:43.312Z,95694.81
2022-10-12T07:27:11.916Z,95697.03
2022-10-12T07:29:40.223Z,95700.88
2022-10-12T07:32:08.922Z,95705.09
2022-10-12T07:34:36.900Z,95692.88
2022-10-12T07:37:05.497Z,95697.81
2022-10-12T07:39:33.521Z,95699.09
2022-10-12T07:42:02.966Z,95696.72
2022-10-12T07:44:31.741Z,95695.94
2022-10-12T07:46:59.703Z,95710.13
2022-10-12T07:49:27.891Z,95702.00
2022-10-12T07:51:55.906Z,95709.97
2022-10-12T07:54:29.119Z,95713.97
2022-10-12T07:56:57.868Z,95708.84
2022-10-12T07:59:27.627Z,95711.81
2022-10-12T08:01:55.723Z,95711.25
2022-10-12T08:04:23.969Z,95718.59
2022-10-12T08:06:52.061Z,95713.66
2022-10-12T08:09:20.200Z,95717.66
2022-10-12T08:11:48.528Z,95714.56
2022-10-12T08:14:17.805Z,95713.91
2022-10-12T08:16:47.359Z,95712.47
2022-10-12T08:19:16.325Z,95717.41
2022-10-12T08:21:44.550Z,95716.25
2022-10-12T08:24:13.764Z,95723.59
2022-10-12T08:26:41.958Z,95715.16
2022-10-12T08:29:11.625Z,95718.00
2022-10-12T08:31:40.776Z,95715.16
2022-10-12T08:34:10.936Z,95715.94
2022-10-12T08:36:39.174Z,95717.84
2022-10-12T08:39:08.767Z,95721.06
2022-10-12T08:41:59.000Z,95729.63
2022-10-12T08:44:42.805Z,95726.66
2022-10-12T08:47:17.094Z,95729.69
2022-10-12T08:49:50.106Z,95731.28
2022-10-12T08:52:28.806Z,95729.50
2022-10-12T08:55:01.176Z,95721.31
2022-10-12T08:57:29.301Z,95722.56
2022-10-12T08:59:57.350Z,95725.63
2022-10-12T09:02:36.264Z,95723.84
2022-10-12T09:05:10.299Z,95722.41
2022-10-12T09:07:43.411Z,95727.81
2022-10-12T09:10:27.977Z,95725.19
2022-10-12T09:13:03.249Z,95730.69
2022-10-12T09:15:34.376Z,95728.66
2022-10-12T09:18:06.750Z,95722.97
2022-10-12T09:20:46.582Z,95734.16
2022-10-12T09:23:24.765Z,95728.03
2022-10-12T09:25:54.136Z,95728.25
2022-10-12T09:28:30.308Z,95725.81
2022-10-12T09:31:16.528Z,95732.78
2022-10-12T09:33:50.353Z,95727.50
2022-10-12T09:36:22.788Z,95724.81
2022-10-12T09:38:52.022Z,95726.50
2022-10-12T09:41:23.273Z,95726.13
2022-10-12T09:43:54.830Z,95725.88
2022-10-12T09:46:30.309Z,95718.13
2022-10-12T09:48:59.688Z,95717.56
2022-10-12T09:51:30.758Z,95717.56
2022-10-12T09:54:03.425Z,95714.16
2022-10-12T09:56:39.890Z,95721.22
2022-10-12T09:59:19.218Z,95716.84
2022-10-12T10:01:59.828Z,95717.75
2022-10-12T10:04:29.797Z,95710.19
2022-10-12T10:07:15.295Z,95712.38
2022-10-12T10:09:43.282Z,95708.78
2022-10-12T10:12:22.093Z,95710.97
2022-10-12T10:14:52.098Z,95714.78
2022-10-12T10:17:26.356Z,95713.25
2022-10-12T10:19:55.920Z,95719.41
2022-10-12T10:22:26.123Z,95717.53
2022-10-12T10:25:00.253Z,95709.13
2022-10-12T10:27:32.217Z,95716.09
2022-10-12T10:30:40.880Z,95715.09
2022-10-12T10:33:17.039Z,95711.28
2022-10-12T10:35:56.480Z,95713.63
2022-10-12T10:38:25.994Z,95709.56
2022-10-12T10:40:57.182Z,95719.03
2022-10-12T10:43:29.490Z,95721.53
2022-10-12T10:46:00.693Z,95721.81
2022-10-12T10:48:32.190Z,95707.25
2022-10-12T10:51:02.564Z,95713.41
2022-10-12T10:53:43.400Z,95718.25
2022-10-12T10:56:15.002Z,95705.59
2022-10-12T10:58:46.513Z,95717.72
2022-10-12T11:01:20.815Z,95709.16
2022-10-12T11:03:56.221Z,95711.75
2022-10-12T11:06:33.626Z,95711.66
2022-10-12T11:09:06.144Z,95712.25
2022-10-12T11:11:37.947Z,95711.16
2022-10-12T11:14:13.537Z,95715.94
2022-10-12T11:16:46.569Z,95705.41
2022-10-12T11:19:31.515Z,95700.25
2022-10-12T11:22:04.632Z,95706.72
2022-10-12T11:24:40.924Z,95702.00
2022-10-12T11:27:15.403Z,95701.47
2022-10-12T11:29:43.496Z,95698.56
2022-10-12T11:32:23.491Z,95699.88
2022-10-12T11:34:56.360Z,95699.88
2022-10-12T11:37:33.358Z,95689.28
2022-10-12T11:40:04.638Z,95686.03
2022-10-12T11:42:39.968Z,95685.47
2022-10-12T11:45:21.948Z,95686.03
2022-10-12T11:47:54.271Z,95685.09
2022-10-12T11:50:30.737Z,95684.69
2022-10-12T11:53:01.956Z,95688.44
2022-10-12T11:55:43.498Z,95683.19
2022-10-12T11:58:24.351Z,95683.19
2022-10-12T12:01:38.330Z,95680.03
2022-10-12T12:04:40.464Z,95678.44
2022-10-12T12:07:07.425Z,95676.34
2022-10-12T12:09:39.682Z,95673.16
2022-10-12T12:12:17.303Z,95659.97
2022-10-12T12:15:02.084Z,95658.66
2022-10-12T12:17:32.529Z,95657.34
2022-10-12T12:20:02.009Z,95655.78
2022-10-12T12:22:35.380Z,95653.63
2022-10-12T12:25:16.603Z,95653.63
2022-10-12T12:27:49.571Z,95651.56
2022-10-12T12:30:40.186Z,95651.50
2022-10-12T12:33:28.715Z,95660.50
2022-10-12T12:35:59.627Z,95649.97
2022-10-12T12:38:33.608Z,95646.78
2022-10-12T12:41:08.790Z,95645.72
2022-10-12T12:44:04.039Z,95648.91
2022-10-12T12:47:39.767Z,95645.47
2022-10-12T12:50:00.914Z,95651.06
2022-10-12T12:52:30.901Z,95640.22
2022-10-12T12:55:22.761Z,95641.00
2022-10-12T12:58:20.757Z,95639.69
2022-10-12T13:01:03.256Z,95631.50
2022-10-12T13:03:49.238Z,95635.16
2022-10-12T13:07:08.652Z,95635.72
2022-10-12T13:09:54.554Z,95626.72
2022-10-12T13:12:39.157Z,95634.91
2022-10-12T13:15:39.475Z,95626.13
2022-10-12T13:18:47.157Z,95629.81
2022-10-12T13:21:19.959Z,95629.75
2022-10-12T13:23:50.257Z,95627.84
2022-10-12T13:26:24.557Z,95626.00
2022-10-12T13:28:55.216Z,95626.53
2022-10-12T13:31:29.664Z,95623.84
2022-10-12T13:34:11.276Z,95612.72
2022-10-12T13:36:51.082Z,95617.47
2022-10-12T13:39:21.925Z,95613.25
2022-10-12T13:41:53.358Z,95611.72
2022-10-12T13:44:24.852Z,95615.16
2022-10-12T13:46:56.803Z,95614.06
2022-10-12T13:49:28.370Z,95609.06
2022-10-12T13:51:58.172Z,95604.78
2022-10-12T13:54:28.274Z,95604.81
2022-10-12T13:57:00.210Z,95601.63
2022-10-12T13:59:31.017Z,95600.06
2022-10-12T14:02:01.675Z,95604.38
2022-10-12T14:04:33.126Z,95600.16
2022-10-12T14:07:04.402Z,95604.91
2022-10-12T14:09:41.814Z,95609.94
2022-10-12T14:12:11.919Z,95611.06
2022-10-12T14:14:42.089Z,95612.38
2022-10-12T14:17:15.956Z,95608.69
2022-10-12T14:19:46.880Z,95600.22
2022-10-12T14:22:22.351Z,95603.38
2022-10-12T14:24:50.812Z,95610.53
2022-10-12T14:27:24.917Z,95611.84
2022-10-12T14:29:57.137Z,95609.72
2022-10-12T14:32:41.385Z,95603.28
2022-10-12T14:35:30.360Z,95604.31
2022-10-12T14:37:59.226Z,95605.91
2022-10-12T14:40:37.259Z,95604.19
2022-10-12T14:43:09.500Z,95599.84
2022-10-12T14:45:37.785Z,95603.13
2022-10-12T14:48:11.749Z,95599.38
2022-10-12T14:50:41.277Z,95595.91
2022-10-12T14:53:12.770Z,95604.69
2022-10-12T14:55:41.490Z,95602.03
2022-10-12T14:58:15.773Z,95608.28
2022-10-12T15:00:45.143Z,95601.22
2022-10-12T15:03:13.227Z,95600.94
2022-10-12T15:05:42.565Z,95604.25
2022-10-12T15:08:10.780Z,95601.06
2022-10-12T15:10:39.093Z,95599.47
2022-10-12T15:13:07.088Z,95606.34
2022-10-12T15:15:40.466Z,95606.88
2022-10-12T15:18:08.493Z,95595.16
2022-10-12T15:20:37.284Z,95591.38
2022-10-12T15:23:07.512Z,95588.75
2022-10-12T15:25:45.568Z,95598.38
2022-10-12T15:28:13.625Z,95592.53
2022-10-12T15:31:04.258Z,95598.81
2022-10-12T15:33:30.390Z,95602.59
2022-10-12T15:35:58.456Z,95588.81
2022-10-12T15:38:27.840Z,95596.66
2022-10-12T15:40:58.442Z,95591.28
2022-10-12T15:43:27.451Z,95588.91
2022-10-12T15:45:56.817Z,95587.78
2022-10-12T15:48:25.201Z,95587.56
2022-10-12T15:50:53.200Z,95590.22
2022-10-12T15:53:24.775Z,95587.06
2022-10-12T15:55:55.593Z,95588.72
2022-10-12T15:58:23.694Z,95586.56
2022-10-12T16:00:51.943Z,95588.72
2022-10-12T16:03:25.937Z,95587.59
2022-10-12T16:05:54.876Z,95593.66
2022-10-12T16:08:22.897Z,95585.13
2022-10-12T16:10:51.419Z,95588.59
2022-10-12T16:13:20.804Z,95591.78
2022-10-12T16:15:48.795Z,95599.03
2022-10-12T16:18:17.618Z,95589.53
2022-10-12T16:20:51.111Z,95591.16
2022-10-12T16:23:24.039Z,95593.88
2022-10-12T16:25:52.587Z,95590.13
2022-10-12T16:28:22.428Z,95585.38
2022-10-12T16:30:51.058Z,95588.03
2022-10-12T16:33:19.960Z,95588.03
2022-10-12T16:35:48.064Z,95589.13
2022-10-12T16:38:16.198Z,95594.41
2022-10-12T16:40:44.290Z,95593.84
2022-10-12T16:43:12.832Z,95592.25
2022-10-12T16:45:42.153Z,95596.50
2022-10-12T16:48:10.479Z,95597.00
2022-10-12T16:50:40.905Z,95588.50
2022-10-12T16:53:09.683Z,95596.41
2022-10-12T16:55:40.795Z,95585.81
2022-10-12T16:58:08.796Z,95587.34
2022-10-12T17:00:36.929Z,95596.81
2022-10-12T17:03:06.326Z,95597.84
2022-10-12T17:05:34.316Z,95602.53
2022-10-12T17:08:02.245Z,95599.63
2022-10-12T17:10:30.227Z,95597.25
2022-10-12T17:12:58.175Z,95599.38
2022-10-12T17:15:26.203Z,95600.41
2022-10-12T17:17:54.327Z,95608.81
2022-10-12T17:20:23.725Z,95607.19
2022-10-12T17:22:51.715Z,95614.56
2022-10-12T17:25:19.690Z,95611.34
2022-10-12T17:27:47.692Z,95616.06
2022-10-12T17:30:15.625Z,95613.44
2022-10-12T17:32:43.867Z,95613.41
2022-10-12T17:35:11.923Z,95622.38
2022-10-12T17:37:41.347Z,95615.47
2022-10-12T17:40:11.754Z,95620.09
2022-10-12T17:42:39.762Z,95622.16
2022-10-12T17:45:08.462Z,95623.63
2022-10-12T17:47:36.516Z,95636.13
2022-10-12T17:50:04.849Z,95637.97
2022-10-12T17:52:32.772Z,95638.78
2022-10-12T17:55:02.243Z,95640.38
2022-10-12T17:57:30.295Z,95639.91
2022-10-12T17:59:58.380Z,95640.88
2022-10-12T18:02:26.385Z,95644.06
2022-10-12T18:04:54.331Z,95648.78
2022-10-12T18:07:22.493Z,95652.94
2022-10-12T18:09:50.655Z,95653.16
2022-10-12T18:12:20.237Z,95654.72
2022-10-12T18:14:48.315Z,95657.13
2022-10-12T18:17:16.389Z,95664.00
2022-10-12T18:19:45.848Z,95660.19
2022-10-12T18:22:13.974Z,95664.38
2022-10-12T18:24:42.084Z,95660.84
2022-10-12T18:27:10.210Z,95666.38
2022-10-12T18:29:39.632Z,95665.88
2022-10-12T18:32:08.249Z,95665.38
2022-10-12T18:34:36.806Z,95672.72
2022-10-12T18:37:05.056Z,95675.28
2022-10-12T18:39:33.067Z,95672.09
2022-10-12T18:42:01.163Z,95661.00
2022-10-12T18:44:29.116Z,95669.41
2022-10-12T18:46:58.491Z,95679.41
2022-10-12T18:49:26.464Z,95678.88
2022-10-12T18:51:54.445Z,95683.59
2022-10-12T18:54:22.626Z,95689.91
2022-10-12T18:56:50.651Z,95685.13
2022-10-12T18:59:19.428Z,95695.69
2022-10-12T19:01:48.058Z,95689.59
2022-10-12T19:04:17.742Z,95688.81
2022-10-12T19:06:45.769Z,95686.06
2022-10-12T19:09:14.506Z,95695.00
2022-10-12T19:11:42.735Z,95694.50
2022-10-12T19:14:14.889Z,95696.59
2022-10-12T19:16:43.317Z,95701.16
2022-10-12T19:19:19.629Z,95701.69
2022-10-12T19:21:50.690Z,95699.25
2022-10-12T19:24:19.663Z,95699.81
2022-10-12T19:26:49.052Z,95702.63
2022-10-12T19:29:17.139Z,95709.25
2022-10-12T19:31:49.492Z,95715.78
2022-10-12T19:34:19.714Z,95708.84
2022-10-12T19:36:48.409Z,95711.84
2022-10-12T19:39:20.346Z,95715.22
2022-10-12T19:41:48.968Z,95713.13
2022-10-12T19:44:17.465Z,95705.16
2022-10-12T19:46:47.774Z,95708.53
2022-10-12T19:49:17.116Z,95715.06
2022-10-12T19:51:45.688Z,95707.06
2022-10-12T19:54:16.041Z,95708.53
2022-10-12T19:56:45.579Z,95708.06
2022-10-12T19:59:13.822Z,95712.72
2022-10-12T20:01:47.771Z,95720.88
2022-10-12T20:04:16.041Z,95718.97
2022-10-12T20:06:44.112Z,95726.16
2022-10-12T20:09:12.321Z,95726.03
2022-10-12T20:11:40.314Z,95724.31
2022-10-12T20:14:09.810Z,95732.16
2022-10-12T20:16:38.313Z,95726.25
2022-10-12T20:19:07.274Z,95727.69
2022-10-12T20:21:36.712Z,95732.16
2022-10-12T20:24:05.301Z,95732.16
2022-10-12T20:26:33.286Z,95733.28
2022-10-12T20:29:01.937Z,95732.25
2022-10-12T20:31:31.292Z,95735.66
2022-10-12T20:33:59.331Z,95738.06
2022-10-12T20:36:28.974Z,95732.78
2022-10-12T20:38:58.316Z,95741.75
2022-10-12T20:41:27.713Z,95740.94
2022-10-12T20:43:57.330Z,95743.81
2022-10-12T20:46:26.238Z,95744.75
2022-10-12T20:48:58.914Z,95746.81
2022-10-12T20:51:29.045Z,95743.63
2022-10-12T20:53:59.351Z,95743.31
2022-10-12T20:56:27.793Z,95744.59
2022-10-12T20:58:56.249Z,95746.19
2022-10-12T21:01:25.873Z,95746.84
2022-10-12T21:03:55.597Z,95749.13
2022-10-12T21:06:24.407Z,95753.84
2022-10-12T21:08:53.558Z,95750.41
2022-10-12T21:11:22.074Z,95756.47
2022-10-12T21:13:50.268Z,95744.44
2022-10-12T21:16:18.604Z,95752.72
2022-10-12T21:18:46.606Z,95754.78
2022-10-12T21:21:18.016Z,95756.22
2022-10-12T21:23:53.617Z,95752.09
2022-10-12T21:26:23.496Z,95756.81
2022-10-12T21:28:52.150Z,95757.13
2022-10-12T21:31:20.928Z,95756.69
2022-10-12T21:33:48.982Z,95757.94
2022-10-12T21:36:20.327Z,95763.81
2022-10-12T21:38:48.950Z,95763.22
2022-10-12T21:41:20.302Z,95756.19
2022-10-12T21:43:49.438Z,95761.63
2022-10-12T21:46:19.455Z,95752.91
2022-10-12T21:48:48.000Z,95747.28
2022-10-12T21:51:15.930Z,95752.63
2022-10-12T21:53:45.299Z,95755.38
2022-10-12T21:56:15.759Z,95750.09
2022-10-12T21:58:44.370Z,95746.91
2022-10-12T22:01:14.501Z,95745.31
2022-10-12T22:03:43.405Z,95745.19
2022-10-12T22:06:14.279Z,95752.44
2022-10-12T22:08:42.639Z,95744.47
2022-10-12T22:11:15.675Z,95742.88
2022-10-12T22:13:43.679Z,95747.56
2022-10-12T22:16:14.176Z,95741.59
2022-10-12T22:18:42.844Z,95746.53
2022-10-12T22:21:13.762Z,95750.19
2022-10-12T22:23:41.772Z,95750.19
2022-10-12T22:26:12.054Z,95750.53
2022-10-12T22:28:45.277Z,95754.44
2022-10-12T22:31:15.387Z,95753.88
2022-10-12T22:33:43.750Z,95751.22
2022-10-12T22:36:13.289Z,95748.00
2022-10-12T22:38:41.325Z,95743.78
2022-10-12T22:41:13.982Z,95747.44
2022-10-12T22:43:49.802Z,95749.03
2022-10-12T22:46:18.871Z,95740.59
2022-10-12T22:48:46.899Z,95736.94
2022-10-12T22:51:17.821Z,95739.00
2022-10-12T22:53:45.837Z,95729.75
2022-10-12T22:56:16.970Z,95727.94
2022-10-12T22:58:45.121Z,95725.84
2022-10-12T23:01:15.829Z,95726.41
2022-10-12T23:03:43.953Z,95722.44
2022-10-12T23:06:13.312Z,95723.22
2022-10-12T23:08:41.777Z,95717.97
2022-10-12T23:11:12.402Z,95724.16
2022-10-12T23:13:41.683Z,95723.03
2022-10-12T23:16:11.811Z,95734.03
2022-10-12T23:18:41.904Z,95744.44
2022-10-12T23:21:12.462Z,95743.41
2022-10-12T23:23:41.506Z,95749.13
2022-10-12T23:26:12.312Z,95742.53
2022-10-12T23:28:40.622Z,95750.88
2022-10-12T23:31:18.510Z,95751.00
2022-10-12T23:33:48.402Z,95752.59
2022-10-12T23:36:18.130Z,95744.94
2022-10-12T23:38:46.817Z,95745.75
2022-10-12T23:41:15.156Z,95738.88
2022-10-12T23:43:43.189Z,95732.47
2022-10-12T23:46:13.181Z,95735.69
2022-10-12T23:48:41.439Z,95730.44
2022-10-12T23:51:11.374Z,95728.59
2022-10-12T23:53:39.638Z,95730.88
2022-10-12T23:56:08.414Z,95739.78
2022-10-12T23:58:36.955Z,95745.97
